createdAt,value
2022-10-08T14:35:38.598Z,0.53
2022-10-08T14:39:01.165Z,0.40
2022-10-08T14:42:23.286Z,0.40
2022-10-08T14:45:45.528Z,0.45
2022-10-08T14:49:07.874Z,0.43
2022-10-08T14:52:30.033Z,0.40
2022-10-08T14:56:10.987Z,0.50
2022-10-08T14:59:39.083Z,0.40
2022-10-08T15:03:02.801Z,0.63
2022-10-08T15:06:25.057Z,0.70
2022-10-08T15:09:47.260Z,1.52
2022-10-08T15:13:09.735Z,0.60
2022-10-08T15:16:31.956Z,0.50
2022-10-08T15:19:54.185Z,0.70
2022-10-08T15:23:17.729Z,1.45
2022-10-08T15:26:39.908Z,1.85
2022-10-08T15:30:02.145Z,0.50
2022-10-08T15:33:24.241Z,0.40
2022-10-08T15:36:47.458Z,0.40
2022-10-08T15:40:09.895Z,0.50
2022-10-08T15:43:34.333Z,0.55
2022-10-08T15:47:02.540Z,0.50
2022-10-08T15:50:24.754Z,0.30
2022-10-08T15:53:47.029Z,0.80
2022-10-08T15:57:11.556Z,0.47
2022-10-08T16:00:37.972Z,0.50
2022-10-08T16:04:00.473Z,0.40
2022-10-08T16:07:22.618Z,0.50
2022-10-08T16:10:44.751Z,0.70
2022-10-08T16:14:11.085Z,0.55
2022-10-08T16:17:33.351Z,0.45
2022-10-08T16:20:55.913Z,0.80
2022-10-08T16:24:18.234Z,0.52
2022-10-08T16:27:40.402Z,0.50
2022-10-08T16:31:03.849Z,0.50
2022-10-08T16:34:28.367Z,0.57
2022-10-08T16:37:52.186Z,0.50
2022-10-08T16:41:24.355Z,0.55
2022-10-08T16:44:46.581Z,0.52
2022-10-08T16:48:08.735Z,0.45
2022-10-08T16:51:34.184Z,0.55
2022-10-08T16:54:56.368Z,0.43
2022-10-08T16:58:18.477Z,0.80
2022-10-08T17:01:43.764Z,0.70
2022-10-08T17:05:07.083Z,0.57
2022-10-08T17:08:30.091Z,0.63
2022-10-08T17:11:52.566Z,0.40
2022-10-08T17:15:14.797Z,0.50
2022-10-08T17:18:38.095Z,0.47
2022-10-08T17:22:00.300Z,0.45
2022-10-08T17:25:22.454Z,0.30
2022-10-08T17:28:46.852Z,0.28
2022-10-08T17:32:09.297Z,0.40
2022-10-08T17:35:31.389Z,0.50
2022-10-08T17:38:58.397Z,0.50
2022-10-08T17:42:20.501Z,0.47
2022-10-08T17:45:42.634Z,0.70
2022-10-08T17:49:06.096Z,2.00
2022-10-08T17:52:28.234Z,0.60
2022-10-08T17:56:01.025Z,2.17
2022-10-08T17:59:23.184Z,3.00
2022-10-08T18:02:46.643Z,1.60
2022-10-08T18:06:11.475Z,3.33
2022-10-08T18:09:33.610Z,3.40
2022-10-08T18:12:55.951Z,2.67
2022-10-08T18:16:19.600Z,1.65
2022-10-08T18:19:41.742Z,1.42
2022-10-08T18:23:08.266Z,1.77
2022-10-08T18:26:34.401Z,1.90
2022-10-08T18:29:56.496Z,1.92
2022-10-08T18:33:21.690Z,2.05
2022-10-08T18:36:47.430Z,2.30
2022-10-08T18:40:09.792Z,1.98
2022-10-08T18:43:31.902Z,1.73
2022-10-08T18:46:54.272Z,1.83
2022-10-08T18:50:16.494Z,1.83
2022-10-08T18:53:40.405Z,1.75
2022-10-08T18:57:02.534Z,1.55
2022-10-08T19:00:24.634Z,1.75
2022-10-08T19:03:48.745Z,1.80
2022-10-08T19:07:11.147Z,2.00
2022-10-08T19:10:33.333Z,1.73
2022-10-08T19:13:55.478Z,1.63
2022-10-08T19:17:17.582Z,2.00
2022-10-08T19:20:39.708Z,1.60
2022-10-08T19:24:03.271Z,1.58
2022-10-08T19:27:25.373Z,1.92
2022-10-08T19:30:47.664Z,1.52
2022-10-08T19:34:13.383Z,1.67
2022-10-08T19:37:35.622Z,1.30
2022-10-08T19:40:58.068Z,1.40
2022-10-08T19:44:21.017Z,2.00
2022-10-08T19:47:43.212Z,1.70
2022-10-08T19:51:07.920Z,1.40
2022-10-08T19:54:30.046Z,1.50
2022-10-08T19:57:52.451Z,1.38
2022-10-08T20:01:26.169Z,1.48
2022-10-08T20:04:48.387Z,1.35
2022-10-08T20:08:10.482Z,1.77
2022-10-08T20:11:33.493Z,1.38
2022-10-08T20:14:55.601Z,1.67
2022-10-08T20:18:17.686Z,1.35
2022-10-08T20:21:40.333Z,1.33
